Time;durP1;ratioP1;P1;durP2;ratioP2;P2;SDS_P1;SDS_P2;PMS_P1;PMS_P2;Temp;Humidity;BMP_temperature;BMP_pressure;BME280_temperature;BME280_humidity;BME280_pressure;Samples;Min_cycle;Max_cycle;Signal;HPM_P1;HPM_P2
2022/07/12 00:00:04;;;;;;;5.32;3.47;;;;;;;20.22;59.93;101977.84;5012652;27;122632;-83
2022/07/12 00:02:30;;;;;;;6.30;3.30;;;;;;;20.18;59.70;101971.72;5011483;28;119939;-81
2022/07/12 00:04:58;;;;;;;6.00;3.95;;;;;;;20.21;59.78;101990.22;5010922;28;119763;-82
2022/07/12 00:07:24;;;;;;;5.13;3.60;;;;;;;20.19;59.26;101984.38;5016400;27;119404;-81
2022/07/12 00:09:50;;;;;;;5.82;3.90;;;;;;;20.11;59.74;101978.47;4994797;28;121458;-82
2022/07/12 00:12:16;;;;;;;4.38;3.35;;;;;;;20.18;59.82;101983.63;4994340;28;119535;-83
2022/07/12 00:14:42;;;;;;;5.07;3.60;;;;;;;20.12;59.63;101971.63;5009513;28;119513;-83
2022/07/12 00:17:07;;;;;;;6.03;3.67;;;;;;;20.18;59.96;101983.63;5012111;28;119656;-83
2022/07/12 00:19:36;;;;;;;5.18;3.38;;;;;;;20.15;60.33;101978.25;5012103;28;119417;-83
2022/07/12 00:22:01;;;;;;;6.07;3.50;;;;;;;20.21;59.85;101981.88;5009120;27;119873;-83
2022/07/12 00:24:27;;;;;;;5.05;3.42;;;;;;;20.16;60.48;101977.78;4996056;28;119686;-83
2022/07/12 00:26:53;;;;;;;5.87;3.67;;;;;;;20.18;60.75;101975.25;4995030;28;120983;-83
2022/07/12 00:29:22;;;;;;;7.60;3.73;;;;;;;20.21;60.66;101974.28;4999847;28;119595;-83
2022/07/12 00:31:47;;;;;;;5.10;3.67;;;;;;;20.25;60.48;101971.28;4995077;28;119967;-83
2022/07/12 00:34:16;;;;;;;6.20;3.60;;;;;;;20.24;60.84;101961.41;5012376;28;119778;-82
2022/07/12 00:36:41;;;;;;;7.05;3.60;;;;;;;20.31;60.78;101971.34;5011477;28;119523;-83
2022/07/12 00:39:07;;;;;;;5.30;3.38;;;;;;;20.33;60.99;101972.41;5005098;28;120144;-83
2022/07/12 00:41:33;;;;;;;5.95;3.42;;;;;;;20.37;61.20;101970.19;4979144;28;119705;-83
2022/07/12 00:43:59;;;;;;;6.93;4.03;;;;;;;20.41;60.92;101967.97;5012864;27;119777;-83
2022/07/12 00:46:24;;;;;;;6.10;3.50;;;;;;;20.42;60.94;101969.53;4994753;28;122633;-83
2022/07/12 00:48:51;;;;;;;5.43;3.42;;;;;;;20.43;61.00;101975.84;4982178;28;119639;-82
2022/07/12 00:51:20;;;;;;;5.60;3.60;;;;;;;20.45;61.31;101973.34;4977072;28;121822;-82
2022/07/12 00:53:46;;;;;;;5.57;3.20;;;;;;;20.49;61.11;101969.09;4990490;28;119931;-83
2022/07/12 00:56:13;;;;;;;6.15;3.30;;;;;;;20.53;61.24;101974.44;5018204;27;119946;-82
2022/07/12 00:58:40;;;;;;;5.10;3.50;;;;;;;20.55;60.94;101966.34;5012470;27;121988;-82
2022/07/12 01:01:05;;;;;;;5.15;3.58;;;;;;;20.48;61.03;101961.22;5011716;27;119723;-83
2022/07/12 01:03:31;;;;;;;6.05;3.60;;;;;;;20.57;60.88;101963.84;5010872;28;120047;-83
2022/07/12 01:05:57;;;;;;;5.57;3.60;;;;;;;20.49;60.86;101946.03;5009729;28;121314;-83
2022/07/12 01:08:23;;;;;;;4.97;3.40;;;;;;;20.57;60.98;101952.69;5012830;28;119362;-83
2022/07/12 01:10:50;;;;;;;4.93;3.45;;;;;;;20.56;61.03;101940.00;5015071;27;119656;-82
2022/07/12 01:13:16;;;;;;;4.60;3.20;;;;;;;20.60;61.01;101937.81;5011984;27;120204;-83
2022/07/12 01:15:42;;;;;;;4.13;3.00;;;;;;;20.65;61.16;101939.88;5011863;28;120028;-83
2022/07/12 01:18:09;;;;;;;4.57;3.27;;;;;;;20.67;61.35;101944.97;4994174;28;122124;-83
2022/07/12 01:20:35;;;;;;;5.88;3.40;;;;;;;20.62;60.99;101940.88;5001626;27;119806;-82
2022/07/12 01:23:03;;;;;;;4.90;3.40;;;;;;;20.67;61.39;101947.75;5010708;28;119984;-83
2022/07/12 01:25:29;;;;;;;4.97;3.35;;;;;;;20.59;61.58;101932.72;4995084;27;121997;-82
2022/07/12 01:27:58;;;;;;;5.80;3.60;;;;;;;20.67;61.35;101956.88;4981761;27;119571;-83
2022/07/12 01:30:24;;;;;;;5.55;3.67;;;;;;;20.67;61.45;101956.88;4994680;28;119321;-83
2022/07/12 01:32:50;;;;;;;5.60;3.85;;;;;;;20.65;61.35;101953.81;5011708;28;119543;-82
2022/07/12 01:35:16;;;;;;;5.05;3.70;;;;;;;20.63;61.72;101950.75;5015757;28;119443;-83
2022/07/12 01:37:42;;;;;;;5.57;3.67;;;;;;;20.76;61.74;101967.09;5012325;28;120104;-82
2022/07/12 01:40:13;;;;;;;5.22;3.90;;;;;;;20.71;61.47;101960.22;5011917;28;119588;-83
2022/07/12 01:42:40;;;;;;;5.45;3.75;;;;;;;20.76;61.30;101970.66;4994088;28;119379;-82
2022/07/12 01:45:07;;;;;;;5.32;4.10;;;;;;;20.73;61.52;101970.88;5009894;28;121099;-83
2022/07/12 01:47:33;;;;;;;5.18;3.88;;;;;;;20.79;61.93;101978.03;4994081;28;120004;-83
2022/07/12 01:49:59;;;;;;;6.15;4.30;;;;;;;20.76;61.77;101976.22;5012041;28;119529;-82
2022/07/12 01:52:25;;;;;;;6.22;4.03;;;;;;;20.80;62.01;101976.78;5011822;27;119927;-82
2022/07/12 01:54:53;;;;;;;5.33;3.67;;;;;;;20.82;62.14;101979.88;5016496;27;119774;-82
2022/07/12 01:57:19;;;;;;;4.93;3.90;;;;;;;20.82;62.05;101970.75;4978063;28;120833;-83
2022/07/12 01:59:57;;;;;;;4.95;3.42;;;;;;;20.80;61.97;101981.59;4996062;28;119820;-81
2022/07/12 02:02:27;;;;;;;5.68;3.65;;;;;;;20.81;61.99;101986.69;4973953;28;122226;-83
2022/07/12 02:04:55;;;;;;;6.07;3.70;;;;;;;20.79;62.04;101978.03;4994383;28;120638;-83
2022/07/12 02:07:24;;;;;;;7.75;4.40;;;;;;;20.81;62.16;101985.91;4999483;28;120221;-83
2022/07/12 02:09:53;;;;;;;4.82;4.00;;;;;;;20.83;62.27;101986.97;4990775;28;119843;-82
2022/07/12 02:12:19;;;;;;;5.73;4.30;;;;;;;20.86;62.13;101984.47;4991440;28;119760;-82
2022/07/12 02:14:44;;;;;;;5.97;4.13;;;;;;;20.76;62.12;101981.81;4990334;28;119749;-83
2022/07/12 02:17:10;;;;;;;7.55;4.30;;;;;;;20.77;62.26;101979.78;5014018;28;118964;-82
2022/07/12 02:19:36;;;;;;;6.10;4.27;;;;;;;20.77;62.44;101983.34;4994025;27;119662;-83
2022/07/12 02:22:02;;;;;;;5.90;3.92;;;;;;;20.77;62.37;101983.34;5011013;28;120227;-83
2022/07/12 02:24:28;;;;;;;5.55;4.20;;;;;;;20.78;62.24;101996.03;5008777;22;121281;-80
2022/07/12 02:26:54;;;;;;;6.25;3.80;;;;;;;20.75;62.55;101991.44;4937896;28;119997;-81
2022/07/12 02:29:20;;;;;;;5.13;3.80;;;;;;;20.76;62.08;101990.19;4976821;28;120002;-81
2022/07/12 02:31:46;;;;;;;5.73;4.10;;;;;;;20.71;62.46;101990.88;4938280;28;122701;-81
2022/07/12 02:34:11;;;;;;;5.80;4.10;;;;;;;20.70;62.56;101992.13;4971074;28;119973;-81
2022/07/12 02:36:37;;;;;;;6.00;4.20;;;;;;;20.70;62.88;101992.13;4968680;28;122212;-81
2022/07/12 02:39:04;;;;;;;7.88;4.97;;;;;;;20.71;62.79;101992.91;4992829;28;123363;-81
2022/07/12 02:41:33;;;;;;;7.45;4.90;;;;;;;20.70;63.03;101989.34;5004518;28;120490;-81
2022/07/12 02:43:59;;;;;;;7.73;5.00;;;;;;;20.66;62.77;101980.44;4962567;28;123113;-81
2022/07/12 02:46:25;;;;;;;6.28;4.63;;;;;;;20.71;63.05;101979.72;4962054;28;119992;-81
2022/07/12 02:48:52;;;;;;;8.57;4.90;;;;;;;20.72;63.00;101986.06;4968776;28;122338;-81
2022/07/12 02:51:18;;;;;;;6.32;4.68;;;;;;;20.68;63.08;101975.13;4965355;28;122957;-81
2022/07/12 02:53:44;;;;;;;6.43;4.70;;;;;;;20.70;62.95;101983.78;4963391;28;119889;-81
2022/07/12 02:56:09;;;;;;;5.72;4.43;;;;;;;20.74;63.05;101989.13;4957906;28;121318;-81
2022/07/12 02:58:36;;;;;;;6.40;4.70;;;;;;;20.74;62.91;101989.13;4974775;28;119989;-81
2022/07/12 03:01:02;;;;;;;6.13;4.57;;;;;;;20.74;63.04;101977.97;4965265;28;119867;-80
2022/07/12 03:03:28;;;;;;;6.37;4.50;;;;;;;20.75;62.82;101985.84;4942807;28;123635;-81
2022/07/12 03:05:54;;;;;;;5.60;4.30;;;;;;;20.76;63.13;101984.59;4981003;28;121077;-80
2022/07/12 03:08:20;;;;;;;6.23;3.93;;;;;;;20.75;63.28;101988.63;4959077;28;122121;-79
2022/07/12 03:10:45;;;;;;;5.97;4.00;;;;;;;20.73;63.11;101979.25;4964339;28;120030;-80
2022/07/12 03:13:11;;;;;;;6.00;4.20;;;;;;;20.78;63.13;101992.47;4978257;28;120106;-80
2022/07/12 03:15:40;;;;;;;6.40;4.00;;;;;;;20.78;63.14;101990.44;4959436;28;120101;-80
2022/07/12 03:18:05;;;;;;;5.40;4.00;;;;;;;20.69;63.06;101982.25;4945345;28;121689;-80
2022/07/12 03:20:31;;;;;;;5.32;3.72;;;;;;;20.72;63.13;101984.06;4978729;28;120101;-80
2022/07/12 03:22:57;;;;;;;4.93;3.90;;;;;;;20.74;63.02;101987.13;4980446;28;120303;-80
2022/07/12 03:25:24;;;;;;;5.57;4.03;;;;;;;20.72;63.44;101986.06;4978460;28;120484;-79
2022/07/12 03:27:50;;;;;;;6.70;4.57;;;;;;;20.71;63.70;101984.53;4981104;28;122166;-79
2022/07/12 03:30:16;;;;;;;6.10;4.38;;;;;;;20.77;63.59;101993.72;4986045;28;120348;-80
2022/07/12 03:32:42;;;;;;;7.28;4.70;;;;;;;20.77;63.66;101990.94;4966504;28;120638;-80
2022/07/12 03:35:08;;;;;;;7.53;4.80;;;;;;;20.79;64.08;101989.19;4966312;28;120382;-79
2022/07/12 03:37:43;;;;;;;8.77;4.75;;;;;;;20.79;63.65;101991.97;4965953;28;123544;-80
2022/07/12 03:40:13;;;;;;;6.37;4.37;;;;;;;20.83;63.58;102000.91;4950876;28;120021;-80
2022/07/12 03:42:43;;;;;;;4.80;4.13;;;;;;;20.82;63.52;101999.38;4977382;28;120336;-80
2022/07/12 03:45:13;;;;;;;5.60;4.10;;;;;;;20.76;63.84;101981.81;4982986;28;120440;-80
2022/07/12 03:47:39;;;;;;;7.38;4.45;;;;;;;20.79;63.55;101986.41;4953439;28;121888;-79
2022/07/12 03:50:07;;;;;;;5.35;4.22;;;;;;;20.79;63.57;101994.75;4980091;28;120422;-80
2022/07/12 03:52:33;;;;;;;5.00;4.15;;;;;;;20.80;63.95;101999.09;4935437;28;119681;-79
2022/07/12 03:55:01;;;;;;;5.23;4.07;;;;;;;20.79;63.74;102000.34;4950497;28;122108;-80
2022/07/12 03:57:30;;;;;;;5.95;4.07;;;;;;;20.84;63.84;102007.25;4981983;28;121532;-80
2022/07/12 03:59:56;;;;;;;5.30;4.20;;;;;;;20.81;63.82;102011.78;4965979;28;120056;-80
2022/07/12 04:02:22;;;;;;;5.85;4.05;;;;;;;20.82;63.72;102016.13;4984284;28;121072;-80
2022/07/12 04:04:48;;;;;;;5.90;4.20;;;;;;;20.77;63.92;102002.84;4959593;28;122834;-79
2022/07/12 04:07:13;;;;;;;5.73;4.27;;;;;;;20.83;63.87;102012.06;4988487;28;120714;-80
2022/07/12 04:09:39;;;;;;;7.78;4.90;;;;;;;20.82;64.16;102012.56;4972851;28;120773;-80
2022/07/12 04:12:05;;;;;;;7.40;5.22;;;;;;;20.85;63.98;102011.59;4989946;28;120104;-80
2022/07/12 04:14:34;;;;;;;7.65;5.18;;;;;;;20.86;63.89;102009.56;4972416;28;122434;-79
2022/07/12 04:16:59;;;;;;;8.65;5.53;;;;;;;20.88;63.93;102009.84;4984595;28;121883;-79
2022/07/12 04:19:27;;;;;;;7.70;5.68;;;;;;;20.89;63.75;102009.34;4989322;28;120137;-80
2022/07/12 04:21:55;;;;;;;10.13;6.03;;;;;;;20.93;64.04;102023.84;4965927;28;120741;-80
2022/07/12 04:24:21;;;;;;;8.43;5.60;;;;;;;20.90;63.96;102018.47;4962543;28;120904;-80
2022/07/12 04:26:46;;;;;;;8.43;5.75;;;;;;;20.87;64.10;102016.66;4966620;28;120574;-80
2022/07/12 04:29:15;;;;;;;7.57;5.50;;;;;;;20.92;63.90;102011.16;4960932;28;123478;-80
2022/07/12 04:31:40;;;;;;;6.57;4.75;;;;;;;20.88;63.85;102013.38;4949420;28;120003;-80
2022/07/12 04:34:06;;;;;;;6.53;4.60;;;;;;;20.89;63.84;102020.50;4968497;28;122070;-80
2022/07/12 04:36:32;;;;;;;6.45;4.60;;;;;;;20.97;63.99;102032.75;4968376;28;123559;-80
2022/07/12 04:38:58;;;;;;;6.32;4.60;;;;;;;20.96;63.92;102030.44;4963155;28;119797;-80
2022/07/12 04:41:24;;;;;;;6.73;4.90;;;;;;;20.93;63.83;102034.22;4984818;28;119869;-80
2022/07/12 04:43:50;;;;;;;8.05;4.60;;;;;;;20.98;64.01;102048.22;4988867;28;120099;-80
2022/07/12 04:46:16;;;;;;;5.30;4.23;;;;;;;20.97;63.90;102040.34;4955721;28;119781;-80
2022/07/12 04:48:41;;;;;;;5.77;3.93;;;;;;;20.97;63.86;102043.13;4991074;28;121826;-80
2022/07/12 04:51:10;;;;;;;6.37;3.83;;;;;;;21.04;64.12;102048.28;4989188;28;119647;-79
2022/07/12 04:53:47;;;;;;;4.82;2.92;;;;;;;21.03;63.99;102049.53;4988884;28;119691;-79
2022/07/12 04:56:12;;;;;;;4.30;3.10;;;;;;;21.03;63.83;102047.50;4986489;28;123298;-80
2022/07/12 04:58:38;;;;;;;4.67;3.20;;;;;;;21.00;64.22;102044.94;4980230;28;120155;-80
2022/07/12 05:01:03;;;;;;;4.10;2.73;;;;;;;21.03;63.99;102055.13;4966508;28;120041;-79
2022/07/12 05:03:30;;;;;;;4.07;3.05;;;;;;;21.03;63.82;102049.53;4984292;28;120892;-79
2022/07/12 05:05:56;;;;;;;3.67;2.85;;;;;;;21.04;63.45;102054.63;4965380;28;120063;-79
2022/07/12 05:08:22;;;;;;;3.97;2.53;;;;;;;21.00;63.77;102051.28;4966635;28;122903;-79
2022/07/12 05:10:48;;;;;;;3.83;2.43;;;;;;;21.04;63.95;102051.06;4965037;28;123012;-79
2022/07/12 05:13:14;;;;;;;3.58;2.58;;;;;;;21.07;63.60;102050.13;4980142;28;120032;-79
2022/07/12 05:15:40;;;;;;;3.50;2.70;;;;;;;21.05;63.43;102039.41;4961656;28;123890;-80
2022/07/12 05:18:08;;;;;;;5.60;3.53;;;;;;;21.10;63.80;102046.34;4980993;28;120631;-79
2022/07/12 05:20:33;;;;;;;4.93;3.13;;;;;;;21.11;63.73;102051.44;4979726;28;120039;-80
2022/07/12 05:23:02;;;;;;;4.63;3.20;;;;;;;21.11;63.43;102050.66;4961032;28;121441;-80
2022/07/12 05:25:27;;;;;;;4.27;2.77;;;;;;;21.14;63.59;102055.25;4989786;28;119704;-79
2022/07/12 05:27:53;;;;;;;4.13;3.03;;;;;;;21.16;63.62;102061.09;4960797;28;122118;-79
2022/07/12 05:30:21;;;;;;;4.47;3.10;;;;;;;21.17;63.79;102057.06;4965022;28;121462;-79
2022/07/12 05:32:47;;;;;;;3.43;2.73;;;;;;;21.19;63.32;102051.75;4959700;28;120650;-79
2022/07/12 05:35:13;;;;;;;3.20;2.30;;;;;;;21.17;63.44;102048.69;4987575;28;120436;-80
2022/07/12 05:37:38;;;;;;;3.27;2.20;;;;;;;21.17;63.40;102051.47;4987143;28;121050;-80
2022/07/12 05:40:05;;;;;;;2.70;2.00;;;;;;;21.18;63.41;102050.22;4972069;28;119692;-80
2022/07/12 05:42:31;;;;;;;2.50;1.63;;;;;;;21.15;63.63;102051.22;4987992;28;120547;-79
2022/07/12 05:44:57;;;;;;;1.60;1.40;;;;;;;21.18;62.95;102055.81;4968109;28;120202;-79
2022/07/12 05:47:23;;;;;;;1.50;1.30;;;;;;;21.22;63.19;102055.56;4969715;28;120365;-79
2022/07/12 05:49:48;;;;;;;1.60;1.20;;;;;;;21.25;63.36;102052.59;4987046;28;122908;-79
2022/07/12 05:54:58;;;;;;;1.57;1.20;;;;;;;21.27;62.87;102055.66;4972219;28;121630;-79
2022/07/12 05:57:24;;;;;;;1.77;1.47;;;;;;;21.13;62.77;102037.75;4959220;28;119728;-80
2022/07/12 05:59:49;;;;;;;2.10;1.40;;;;;;;21.22;62.72;102052.78;4980558;28;121194;-79
2022/07/12 06:02:15;;;;;;;1.90;1.50;;;;;;;21.24;62.61;102048.28;4988072;28;120617;-80
2022/07/12 06:04:43;;;;;;;2.00;1.63;;;;;;;21.23;62.63;102045.94;4987364;28;119992;-79
2022/07/12 06:07:09;;;;;;;2.47;1.80;;;;;;;21.26;62.87;102042.19;4970596;28;121181;-79
2022/07/12 06:09:35;;;;;;;2.00;1.80;;;;;;;21.28;62.77;102037.66;4971149;28;122811;-80
2022/07/12 06:12:00;;;;;;;2.55;1.65;;;;;;;21.35;63.07;102040.03;4971510;28;120083;-80
2022/07/12 06:14:26;;;;;;;2.38;1.60;;;;;;;21.35;62.90;102045.59;4971629;28;120957;-79
2022/07/12 06:16:54;;;;;;;2.73;2.00;;;;;;;21.36;63.11;102044.34;4965383;28;120142;-79
2022/07/12 06:19:20;;;;;;;3.00;2.10;;;;;;;21.40;62.81;102044.88;4964265;28;121932;-79
2022/07/12 06:21:48;;;;;;;3.07;2.17;;;;;;;21.42;62.73;102049.97;4972790;28;120114;-80
2022/07/12 06:24:14;;;;;;;2.60;1.77;;;;;;;21.47;62.92;102054.06;4955184;28;120510;-79
2022/07/12 06:26:40;;;;;;;2.87;1.60;;;;;;;21.46;62.72;102053.31;4979410;28;120655;-79
2022/07/12 06:29:05;;;;;;;2.15;1.60;;;;;;;21.48;62.68;102050.78;4979759;28;122276;-80
2022/07/12 06:31:31;;;;;;;2.33;1.70;;;;;;;21.49;62.61;102057.91;4966714;28;120276;-79
2022/07/12 06:33:56;;;;;;;2.77;1.80;;;;;;;21.53;62.83;102049.28;4978151;28;121890;-79
2022/07/12 06:36:22;;;;;;;2.35;1.60;;;;;;;21.51;62.91;102040.66;4947126;28;122930;-80
2022/07/12 06:38:48;;;;;;;2.15;1.75;;;;;;;21.58;63.16;102048.59;4971359;28;119901;-80
2022/07/12 06:41:13;;;;;;;2.60;1.73;;;;;;;21.64;63.14;102052.97;4940574;28;123425;-80
2022/07/12 06:43:39;;;;;;;2.40;2.00;;;;;;;21.70;63.06;102056.56;4985155;28;119705;-80
2022/07/12 06:46:07;;;;;;;3.25;2.42;;;;;;;21.72;62.97;102053.28;4979460;28;123008;-80
2022/07/12 06:48:53;;;;;;;4.28;2.50;;;;;;;21.75;62.91;102053.03;4963909;28;121065;-79
2022/07/12 06:51:19;;;;;;;4.50;2.95;;;;;;;21.76;62.51;102064.97;4962720;28;120149;-80
2022/07/12 06:53:44;;;;;;;3.80;2.60;;;;;;;21.79;62.88;102052.84;4973262;28;120539;-80
2022/07/12 06:56:10;;;;;;;2.60;1.90;;;;;;;21.84;62.53;102060.50;4973553;28;123020;-80
2022/07/12 06:58:36;;;;;;;2.38;1.90;;;;;;;21.86;62.54;102060.75;4986540;28;119917;-80
2022/07/12 07:01:01;;;;;;;2.00;1.80;;;;;;;21.83;62.27;102050.59;4960792;28;123703;-80
2022/07/12 07:03:27;;;;;;;2.60;2.10;;;;;;;21.91;62.36;102060.03;4961981;28;121176;-81
2022/07/12 07:05:52;;;;;;;2.20;1.77;;;;;;;21.94;62.53;102059.03;4956526;28;121159;-80
2022/07/12 07:08:18;;;;;;;2.85;2.20;;;;;;;21.95;62.30;102054.97;4972579;28;121661;-80
2022/07/12 07:10:44;;;;;;;2.55;2.00;;;;;;;21.99;62.23;102061.09;4974023;28;120483;-80
2022/07/12 07:13:13;;;;;;;2.42;1.90;;;;;;;22.00;62.44;102068.25;4966566;28;122053;-80
2022/07/12 07:15:42;;;;;;;2.65;2.00;;;;;;;21.99;62.38;102068.72;4959754;28;124020;-80
2022/07/12 07:18:08;;;;;;;3.53;1.97;;;;;;;21.99;62.42;102069.47;4953329;28;120581;-80
2022/07/12 07:20:34;;;;;;;2.30;1.73;;;;;;;22.08;62.40;102084.56;4975687;28;119902;-80
2022/07/12 07:23:00;;;;;;;1.90;1.50;;;;;;;22.10;61.87;102082.03;4981085;28;120936;-80
2022/07/12 07:25:25;;;;;;;1.90;1.30;;;;;;;22.13;61.67;102078.25;4964978;28;122228;-80
2022/07/12 07:27:51;;;;;;;1.40;1.20;;;;;;;22.15;61.88;102087.66;4985891;28;120544;-80
2022/07/12 07:33:01;;;;;;;2.17;1.30;;;;;;;22.19;61.64;102084.63;4968315;28;121321;-80
2022/07/12 07:35:26;;;;;;;1.47;1.27;;;;;;;22.10;61.87;102073.66;4965423;28;121041;-80
2022/07/12 07:37:52;;;;;;;1.43;1.27;;;;;;;22.16;61.87;102085.63;4971151;28;119899;-80
2022/07/12 07:40:18;;;;;;;2.50;1.40;;;;;;;22.18;61.46;102083.09;4990193;28;120308;-79
2022/07/12 07:42:44;;;;;;;1.70;1.40;;;;;;;22.25;61.84;102088.25;4959699;28;123468;-79
2022/07/12 07:45:12;;;;;;;1.65;1.20;;;;;;;22.27;61.78;102088.53;4989299;28;121019;-79
2022/07/12 07:47:48;;;;;;;2.50;1.30;;;;;;;22.33;61.75;102083.72;4953576;28;122477;-79
2022/07/12 07:50:13;;;;;;;1.47;1.10;;;;;;;22.33;61.53;102086.50;4964049;28;120395;-80
2022/07/12 07:52:42;;;;;;;1.70;1.02;;;;;;;22.39;61.85;102076.13;4961418;28;120633;-80
2022/07/12 07:55:08;;;;;;;1.40;1.10;;;;;;;22.42;61.58;102077.91;4968252;28;123483;-79
2022/07/12 07:57:34;;;;;;;1.20;1.10;;;;;;;22.47;60.56;102079.22;4989559;28;119943;-79
2022/07/12 07:59:59;;;;;;;1.50;1.30;;;;;;;22.48;60.38;102081.53;4946994;28;123072;-80
2022/07/12 08:02:25;;;;;;;1.70;1.27;;;;;;;22.42;60.44;102074.34;4957310;28;120311;-80
2022/07/12 08:04:53;;;;;;;1.30;1.20;;;;;;;22.43;60.60;102076.66;4979006;28;120351;-80
2022/07/12 08:07:19;;;;;;;1.50;1.30;;;;;;;22.45;60.57;102076.16;4966251;28;124075;-80
2022/07/12 08:09:47;;;;;;;2.00;1.20;;;;;;;22.44;60.81;102092.16;4983556;28;120375;-80
2022/07/12 08:12:13;;;;;;;1.37;1.20;;;;;;;22.49;60.61;102091.44;4962877;28;122189;-80
2022/07/12 08:14:42;;;;;;;1.40;1.30;;;;;;;22.55;61.10;102089.44;4950764;28;123256;-80
2022/07/12 08:17:10;;;;;;;1.63;1.20;;;;;;;22.63;60.63;102090.50;4940071;28;120032;-79
2022/07/12 08:19:36;;;;;;;1.30;1.20;;;;;;;22.65;60.70;102076.75;4971060;28;122659;-80
2022/07/12 08:22:02;;;;;;;1.40;1.30;;;;;;;22.82;60.39;102087.28;4964561;28;123454;-80
2022/07/12 08:24:28;;;;;;;1.60;1.27;;;;;;;22.86;60.28;102082.97;4981276;28;122020;-80
2022/07/12 08:26:53;;;;;;;1.23;1.13;;;;;;;22.94;60.45;102097.25;4974833;28;123675;-80
2022/07/12 08:29:19;;;;;;;1.20;1.10;;;;;;;23.04;59.74;102090.19;4945785;28;120558;-80
2022/07/12 08:31:45;;;;;;;1.20;1.10;;;;;;;23.10;59.70;102084.59;4980312;28;122371;-80
2022/07/12 08:34:11;;;;;;;1.27;1.17;;;;;;;23.24;59.95;102095.59;4969328;28;122232;-80
2022/07/12 08:36:36;;;;;;;1.67;1.30;;;;;;;23.27;58.88;102094.56;4983996;28;120689;-79
2022/07/12 08:39:03;;;;;;;1.37;1.17;;;;;;;23.28;59.14;102087.69;4968157;28;122514;-79
2022/07/12 08:41:29;;;;;;;1.40;1.23;;;;;;;23.38;58.58;102084.66;4967414;28;124813;-79
2022/07/12 08:43:55;;;;;;;1.10;1.00;;;;;;;23.41;58.61;102086.44;4976137;28;121406;-79
2022/07/12 08:46:21;;;;;;;1.38;1.23;;;;;;;23.41;58.67;102084.38;4983262;28;122543;-80
2022/07/12 08:48:46;;;;;;;1.50;1.17;;;;;;;23.43;58.80;102093.06;4960449;28;122103;-80
2022/07/12 08:51:18;;;;;;;1.27;1.17;;;;;;;23.48;58.57;102083.16;4945160;28;123098;-80
2022/07/12 08:53:44;;;;;;;1.70;1.10;;;;;;;23.55;57.94;102080.59;4960929;28;124524;-79
2022/07/12 08:56:32;;;;;;;1.37;1.20;;;;;;;23.67;58.08;102081.41;4952442;28;122561;-78
2022/07/12 08:59:14;;;;;;;2.20;1.05;;;;;;;23.76;58.21;102086.75;4966177;28;121158;-79
2022/07/12 09:01:45;;;;;;;1.42;1.10;;;;;;;23.83;57.75;102077.84;4980924;28;125783;-79
2022/07/12 09:04:37;;;;;;;2.97;1.15;;;;;;;23.92;58.13;102064.84;4966833;28;121828;-79
2022/07/12 09:07:14;;;;;;;1.43;1.33;;;;;;;23.98;56.93;102062.81;4948697;28;122019;-79
2022/07/12 09:12:55;;;;;;;1.05;0.95;;;;;;;24.04;57.10;102060.75;4984677;28;121524;-80
2022/07/12 09:15:39;;;;;;;1.65;1.25;;;;;;;24.10;56.86;102058.69;4948641;28;124748;-80
2022/07/12 09:18:28;;;;;;;1.33;1.23;;;;;;;24.15;56.81;102058.69;4948813;28;122013;-81
2022/07/12 09:20:54;;;;;;;1.50;1.17;;;;;;;24.25;57.52;102059.19;4981032;28;123289;-80
2022/07/12 09:23:59;;;;;;;13.02;2.30;;;;;;;24.32;57.01;102064.28;4913942;28;122753;-80
2022/07/12 09:26:32;;;;;;;1.00;0.90;;;;;;;24.29;56.42;102059.69;4941891;28;121987;-80
2022/07/12 09:37:44;;;;;;;1.17;0.90;;;;;;;24.30;56.80;102055.63;4976398;28;121975;-80
2022/07/12 09:40:10;;;;;;;5.33;1.20;;;;;;;24.34;56.83;102053.31;4955286;28;121984;-80
2022/07/12 09:42:37;;;;;;;1.25;0.80;;;;;;;24.39;56.59;102052.56;4974633;28;123164;-80
2022/07/12 09:45:04;;;;;;;0.70;0.70;;;;;;;24.44;56.16;102043.34;4943357;28;125088;-80
2022/07/12 09:47:31;;;;;;;1.30;0.90;;;;;;;24.51;56.00;102036.44;4976169;28;122061;-81
2022/07/12 09:49:57;;;;;;;1.23;0.80;;;;;;;24.55;55.22;102036.16;4977450;28;122542;-80
2022/07/12 09:52:25;;;;;;;0.80;0.77;;;;;;;24.56;54.96;102049.66;4946578;28;125173;-81
2022/07/12 09:54:53;;;;;;;1.50;0.80;;;;;;;24.55;54.90;102044.56;4975414;28;122397;-81
2022/07/12 09:57:27;;;;;;;0.90;0.80;;;;;;;24.52;55.98;102043.56;4945589;28;123163;-80
2022/07/12 10:00:12;;;;;;;1.90;1.42;;;;;;;24.59;56.29;102045.06;4961828;28;122625;-80
2022/07/12 10:02:39;;;;;;;1.35;1.20;;;;;;;24.63;56.44;102048.38;4944107;28;122680;-81
2022/07/12 10:05:07;;;;;;;1.10;1.00;;;;;;;24.63;55.74;102040.72;4957184;28;122485;-81
2022/07/12 10:08:10;;;;;;;1.08;0.95;;;;;;;24.70;54.73;102045.03;4978385;28;121725;-80
2022/07/12 10:10:36;;;;;;;1.30;1.20;;;;;;;24.73;55.84;102029.97;4974897;28;122750;-81
2022/07/12 10:13:02;;;;;;;1.30;1.20;;;;;;;24.71;55.89;102030.47;4959981;28;125220;-80
2022/07/12 10:15:29;;;;;;;2.10;1.23;;;;;;;24.75;55.93;102033.00;4941132;28;122137;-80
2022/07/12 10:18:00;;;;;;;1.50;1.10;;;;;;;24.83;56.96;102038.81;4957370;28;123401;-81
2022/07/12 10:23:30;;;;;;;1.27;1.17;;;;;;;24.91;56.53;102046.19;4994489;28;123663;-81
2022/07/12 10:25:57;;;;;;;1.20;1.10;;;;;;;24.92;56.53;102036.50;4974356;28;125889;-81
2022/07/12 10:28:30;;;;;;;2.10;1.00;;;;;;;25.01;56.22;102039.00;4944889;28;123717;-81
2022/07/12 10:30:56;;;;;;;1.67;1.17;;;;;;;25.03;55.95;102047.69;4944079;28;125413;-81
2022/07/12 10:33:23;;;;;;;1.50;1.05;;;;;;;25.04;55.01;102040.03;4972973;28;122268;-80
2022/07/12 10:36:06;;;;;;;1.15;0.95;;;;;;;25.05;55.07;102038.72;4981275;28;123634;-80
2022/07/12 10:38:32;;;;;;;0.80;0.80;;;;;;;25.05;55.12;102035.94;4963118;28;122188;-79
2022/07/12 10:41:18;;;;;;;1.02;0.90;;;;;;;25.05;55.44;102033.88;4968898;28;124749;-81
2022/07/12 10:46:28;;;;;;;2.50;1.00;;;;;;;25.06;55.19;102029.03;4963915;28;125632;-80
2022/07/12 10:49:31;;;;;;;1.37;0.90;;;;;;;25.07;55.08;102024.94;4981331;28;124621;-81
2022/07/12 10:52:13;;;;;;;1.37;1.00;;;;;;;25.11;56.05;102027.50;4945775;28;123175;-81
2022/07/12 10:54:59;;;;;;;1.30;1.10;;;;;;;25.21;56.15;102026.63;4935093;28;122809;-80
2022/07/12 10:57:45;;;;;;;1.93;1.13;;;;;;;25.24;55.96;102036.81;4952219;28;122278;-81
2022/07/12 11:00:12;;;;;;;1.10;0.90;;;;;;;25.22;55.23;102035.81;4963915;28;124286;-81
2022/07/12 11:02:38;;;;;;;1.27;0.88;;;;;;;25.17;54.41;102025.41;4981438;28;122429;-81
2022/07/12 11:05:08;;;;;;;1.07;0.97;;;;;;;25.08;55.01;102018.81;4952604;28;124007;-80
2022/07/12 11:07:34;;;;;;;1.10;0.93;;;;;;;25.13;54.84;102025.69;4941039;28;124538;-80
2022/07/12 11:09:59;;;;;;;1.45;1.08;;;;;;;25.15;55.44;102014.69;4959352;28;122616;-80
2022/07/12 11:12:32;;;;;;;1.87;1.17;;;;;;;25.19;55.74;102031.25;4980890;28;122487;-81
2022/07/12 11:14:59;;;;;;;0.90;0.90;;;;;;;25.15;54.44;102025.16;4982956;28;122822;-80
2022/07/12 11:17:27;;;;;;;1.08;0.98;;;;;;;25.19;54.73;102022.84;4958935;28;122141;-80
2022/07/12 11:20:27;;;;;;;1.10;1.00;;;;;;;25.22;54.69;102007.75;4977131;28;122326;-81
2022/07/12 11:22:53;;;;;;;1.60;0.90;;;;;;;25.17;54.98;102008.56;4968827;28;124305;-81
2022/07/12 11:25:19;;;;;;;0.77;0.70;;;;;;;25.16;54.66;102007.03;4981555;28;122826;-80
2022/07/12 11:27:45;;;;;;;1.00;0.80;;;;;;;25.15;54.73;102016.75;4966253;28;124664;-81
2022/07/12 11:30:13;;;;;;;2.00;0.90;;;;;;;25.13;55.04;101999.66;4974178;28;122632;-81
2022/07/12 11:32:43;;;;;;;1.27;0.70;;;;;;;25.18;54.41;102007.25;4977602;28;122053;-81
2022/07/12 11:35:22;;;;;;;1.15;0.90;;;;;;;25.18;54.34;102007.25;4984292;28;122487;-81
2022/07/12 11:37:59;;;;;;;1.00;0.90;;;;;;;25.18;55.19;102001.66;4947787;28;122139;-80
2022/07/12 11:40:28;;;;;;;1.73;1.03;;;;;;;25.24;55.63;101999.56;4980987;28;122644;-80
2022/07/12 11:42:59;;;;;;;2.27;0.80;;;;;;;25.21;55.11;101978.91;4961750;28;122252;-81